logo dgac
Martes 21 de Septiembre del 2021
Buscar por aerodromo o helipuerto
Ingrese nombre de aeródromo, localidad o designador OACI:

Aeródromo: Carriel Sur (ALTN INTL) (PUB) (SCIE)

Ubicación: Concepción, VIII Región, Chile (36º 46' 17'' S, 73º 03' 45'' W) Ver ubicación en el mapa

Pistas

Orientación Dimensión Pendiente Superficie Resistencia APCH THR RWY PAPI
02/20 2600 x 45 0,10 ASFALTO PCN 49 F/B/W/T Sí (3º)
Horas de operación H24
Elevación 8 m / 26 ft
Otra Información Adm : D.G.A.C
Uso : PUB
Ubicado a 5 km al NW de la ciudad de Concepción
TEL (56) 413835000
TEL ARO (56) 413835007 - (56) 224392743 FAX ARO (56) 413835041 MET (56) 413835006
email : aro.carrielsur@dgac.gob.cl

Otra información ver AIP-Chile Volumen I AD 2.4-1 SCIE

CCCM/FCCV Descargar
andera de Chile
Mapa de Carriel Sur (ALTN INTL) (PUB) (SCIE)

Último METAR

METAR SCIE 211000Z 17002KT CAVOK 06/06 Q1011

Último TAF

TAF SCIE 211000Z 2112/2212 22005KT CAVOK TX18/2118Z TN06/2210Z BECMG 2116/2118 01010KT BECMG 2120/2122 BKN010

Últimas fotos cámaras

Imagen aerodromo Carriel Sur (ALTN INTL) (PUB) (SCIE) S-Oeste tomada el 21-09-2021 11:06:59 Imagen aerodromo Carriel Sur (ALTN INTL) (PUB) (SCIE) Norte tomada el 21-09-2021 11:08:52

Último NOTAM

A4411/21 NOTAMN Q)SCEZ/QFDAS/I/M/A/000/999/3646S07304W005 A)SCIE B)2109181319 C)2109212000 E)BOARDING BRIDGE 6 U/S DUE TO MAINT. INSTRUCTIONS: CONCEPCION GNDC 121.9MHZ CONCEPCION TWR 118.6MHZ